sensor_id;sensor_type;location;lat;lon;timestamp;P1;durP1;ratioP1;P2;durP2;ratioP2
62696;SDS011;48761;42.680;23.312;2023-02-15T00:00:25;62.22;;;36.08;;
62696;SDS011;48761;42.680;23.312;2023-02-15T00:02:51;63.55;;;35.85;;
62696;SDS011;48761;42.680;23.312;2023-02-15T00:05:17;61.10;;;34.85;;
62696;SDS011;48761;42.680;23.312;2023-02-15T00:07:43;60.22;;;34.78;;
62696;SDS011;48761;42.680;23.312;2023-02-15T00:10:09;58.53;;;33.67;;
62696;SDS011;48761;42.680;23.312;2023-02-15T00:12:35;58.95;;;35.22;;
62696;SDS011;48761;42.680;23.312;2023-02-15T00:15:00;56.42;;;34.47;;
62696;SDS011;48761;42.680;23.312;2023-02-15T00:17:27;59.00;;;35.13;;
62696;SDS011;48761;42.680;23.312;2023-02-15T00:19:53;58.03;;;35.50;;
62696;SDS011;48761;42.680;23.312;2023-02-15T00:22:19;59.97;;;35.15;;
62696;SDS011;48761;42.680;23.312;2023-02-15T00:24:46;58.03;;;34.35;;
62696;SDS011;48761;42.680;23.312;2023-02-15T00:27:12;58.20;;;34.28;;
62696;SDS011;48761;42.680;23.312;2023-02-15T00:29:38;59.05;;;34.53;;
62696;SDS011;48761;42.680;23.312;2023-02-15T00:32:04;57.17;;;34.70;;
62696;SDS011;48761;42.680;23.312;2023-02-15T00:34:30;55.53;;;34.13;;
62696;SDS011;48761;42.680;23.312;2023-02-15T00:36:56;59.30;;;34.40;;
62696;SDS011;48761;42.680;23.312;2023-02-15T00:39:22;56.53;;;33.63;;
62696;SDS011;48761;42.680;23.312;2023-02-15T00:41:48;61.63;;;35.97;;
62696;SDS011;48761;42.680;23.312;2023-02-15T00:44:14;56.80;;;33.53;;
62696;SDS011;48761;42.680;23.312;2023-02-15T00:46:40;54.25;;;33.88;;
62696;SDS011;48761;42.680;23.312;2023-02-15T00:49:07;57.70;;;33.55;;
62696;SDS011;48761;42.680;23.312;2023-02-15T00:51:33;58.58;;;32.83;;
62696;SDS011;48761;42.680;23.312;2023-02-15T00:53:59;55.38;;;32.15;;
62696;SDS011;48761;42.680;23.312;2023-02-15T00:56:25;56.20;;;33.15;;
62696;SDS011;48761;42.680;23.312;2023-02-15T00:58:51;57.90;;;35.28;;
62696;SDS011;48761;42.680;23.312;2023-02-15T01:01:17;55.03;;;32.55;;
62696;SDS011;48761;42.680;23.312;2023-02-15T01:03:44;50.20;;;32.42;;
62696;SDS011;48761;42.680;23.312;2023-02-15T01:06:10;54.88;;;33.63;;
62696;SDS011;48761;42.680;23.312;2023-02-15T01:08:36;54.47;;;32.95;;
62696;SDS011;48761;42.680;23.312;2023-02-15T01:11:03;55.17;;;33.08;;
62696;SDS011;48761;42.680;23.312;2023-02-15T01:13:34;55.97;;;33.95;;
62696;SDS011;48761;42.680;23.312;2023-02-15T01:16:00;56.25;;;32.90;;
62696;SDS011;48761;42.680;23.312;2023-02-15T01:18:26;53.67;;;33.60;;
62696;SDS011;48761;42.680;23.312;2023-02-15T01:20:52;52.17;;;32.42;;
62696;SDS011;48761;42.680;23.312;2023-02-15T01:23:19;54.13;;;31.80;;
62696;SDS011;48761;42.680;23.312;2023-02-15T01:25:45;53.20;;;32.20;;
62696;SDS011;48761;42.680;23.312;2023-02-15T01:28:11;47.83;;;31.38;;
62696;SDS011;48761;42.680;23.312;2023-02-15T01:44:53;54.80;;;34.80;;
62696;SDS011;48761;42.680;23.312;2023-02-15T01:47:45;51.55;;;32.08;;
62696;SDS011;48761;42.680;23.312;2023-02-15T01:50:38;50.80;;;30.60;;
62696;SDS011;48761;42.680;23.312;2023-02-15T01:56:21;48.95;;;31.33;;
62696;SDS011;48761;42.680;23.312;2023-02-15T01:59:11;53.97;;;32.40;;
62696;SDS011;48761;42.680;23.312;2023-02-15T02:02:02;54.78;;;32.33;;
62696;SDS011;48761;42.680;23.312;2023-02-15T02:04:52;51.60;;;31.20;;
62696;SDS011;48761;42.680;23.312;2023-02-15T02:07:41;49.47;;;31.02;;
62696;SDS011;48761;42.680;23.312;2023-02-15T02:10:29;53.92;;;31.63;;
62696;SDS011;48761;42.680;23.312;2023-02-15T02:13:15;49.00;;;30.88;;
62696;SDS011;48761;42.680;23.312;2023-02-15T02:16:12;57.20;;;33.72;;
62696;SDS011;48761;42.680;23.312;2023-02-15T02:19:10;50.55;;;30.38;;
62696;SDS011;48761;42.680;23.312;2023-02-15T02:34:23;51.08;;;30.48;;
62696;SDS011;48761;42.680;23.312;2023-02-15T02:37:48;52.38;;;31.45;;
62696;SDS011;48761;42.680;23.312;2023-02-15T02:40:54;54.40;;;31.60;;
62696;SDS011;48761;42.680;23.312;2023-02-15T02:44:14;54.85;;;31.70;;
62696;SDS011;48761;42.680;23.312;2023-02-15T02:47:19;49.75;;;30.27;;
62696;SDS011;48761;42.680;23.312;2023-02-15T02:50:13;49.30;;;30.13;;
62696;SDS011;48761;42.680;23.312;2023-02-15T02:53:08;50.53;;;30.30;;
62696;SDS011;48761;42.680;23.312;2023-02-15T02:55:56;50.22;;;29.55;;
62696;SDS011;48761;42.680;23.312;2023-02-15T02:58:51;58.80;;;31.15;;
62696;SDS011;48761;42.680;23.312;2023-02-15T03:01:46;52.47;;;29.95;;
62696;SDS011;48761;42.680;23.312;2023-02-15T03:04:39;46.17;;;28.92;;
62696;SDS011;48761;42.680;23.312;2023-02-15T03:07:30;49.13;;;29.70;;
62696;SDS011;48761;42.680;23.312;2023-02-15T03:10:18;47.90;;;29.08;;
62696;SDS011;48761;42.680;23.312;2023-02-15T03:13:08;49.90;;;29.35;;
62696;SDS011;48761;42.680;23.312;2023-02-15T03:15:54;50.92;;;29.90;;
62696;SDS011;48761;42.680;23.312;2023-02-15T03:18:44;47.58;;;28.85;;
62696;SDS011;48761;42.680;23.312;2023-02-15T03:21:36;47.80;;;28.75;;
62696;SDS011;48761;42.680;23.312;2023-02-15T03:27:59;47.72;;;29.42;;
62696;SDS011;48761;42.680;23.312;2023-02-15T03:30:53;44.20;;;28.08;;
62696;SDS011;48761;42.680;23.312;2023-02-15T03:33:47;48.20;;;28.98;;
62696;SDS011;48761;42.680;23.312;2023-02-15T03:37:13;49.97;;;30.33;;
62696;SDS011;48761;42.680;23.312;2023-02-15T03:46:28;45.67;;;27.92;;
62696;SDS011;48761;42.680;23.312;2023-02-15T03:49:24;47.83;;;28.10;;
62696;SDS011;48761;42.680;23.312;2023-02-15T03:52:14;47.25;;;27.73;;
62696;SDS011;48761;42.680;23.312;2023-02-15T03:55:03;45.95;;;27.67;;
62696;SDS011;48761;42.680;23.312;2023-02-15T03:57:49;44.80;;;27.40;;
62696;SDS011;48761;42.680;23.312;2023-02-15T04:00:37;49.63;;;28.95;;
62696;SDS011;48761;42.680;23.312;2023-02-15T04:03:43;44.70;;;27.63;;
62696;SDS011;48761;42.680;23.312;2023-02-15T04:06:35;47.55;;;28.30;;
62696;SDS011;48761;42.680;23.312;2023-02-15T04:09:21;45.67;;;27.73;;
62696;SDS011;48761;42.680;23.312;2023-02-15T04:12:07;44.50;;;28.20;;
62696;SDS011;48761;42.680;23.312;2023-02-15T04:14:54;45.85;;;27.50;;
62696;SDS011;48761;42.680;23.312;2023-02-15T04:17:40;47.80;;;28.65;;
62696;SDS011;48761;42.680;23.312;2023-02-15T04:20:26;48.50;;;28.55;;
62696;SDS011;48761;42.680;23.312;2023-02-15T04:23:12;45.20;;;27.45;;
62696;SDS011;48761;42.680;23.312;2023-02-15T04:25:58;45.58;;;27.75;;
62696;SDS011;48761;42.680;23.312;2023-02-15T04:28:44;46.92;;;27.77;;
62696;SDS011;48761;42.680;23.312;2023-02-15T04:31:38;48.83;;;28.30;;
62696;SDS011;48761;42.680;23.312;2023-02-15T04:34:24;47.80;;;29.25;;
62696;SDS011;48761;42.680;23.312;2023-02-15T04:37:11;49.42;;;28.30;;
62696;SDS011;48761;42.680;23.312;2023-02-15T04:39:57;48.40;;;28.23;;
62696;SDS011;48761;42.680;23.312;2023-02-15T04:42:43;46.53;;;27.85;;
62696;SDS011;48761;42.680;23.312;2023-02-15T04:45:29;52.15;;;28.55;;
62696;SDS011;48761;42.680;23.312;2023-02-15T04:48:15;45.80;;;28.40;;
62696;SDS011;48761;42.680;23.312;2023-02-15T04:51:06;47.28;;;28.95;;
62696;SDS011;48761;42.680;23.312;2023-02-15T04:53:52;50.38;;;27.52;;
62696;SDS011;48761;42.680;23.312;2023-02-15T04:56:38;49.20;;;28.70;;
62696;SDS011;48761;42.680;23.312;2023-02-15T04:59:25;46.80;;;28.83;;
62696;SDS011;48761;42.680;23.312;2023-02-15T05:02:11;50.20;;;29.35;;
62696;SDS011;48761;42.680;23.312;2023-02-15T05:04:57;49.60;;;29.08;;
62696;SDS011;48761;42.680;23.312;2023-02-15T05:07:43;47.30;;;27.90;;
62696;SDS011;48761;42.680;23.312;2023-02-15T05:10:29;49.75;;;28.95;;
62696;SDS011;48761;42.680;23.312;2023-02-15T05:13:16;49.03;;;28.83;;
62696;SDS011;48761;42.680;23.312;2023-02-15T05:16:02;51.85;;;30.33;;
62696;SDS011;48761;42.680;23.312;2023-02-15T05:18:48;51.95;;;30.05;;
62696;SDS011;48761;42.680;23.312;2023-02-15T05:21:34;49.50;;;29.02;;
62696;SDS011;48761;42.680;23.312;2023-02-15T05:24:20;49.78;;;27.75;;
62696;SDS011;48761;42.680;23.312;2023-02-15T05:27:07;51.15;;;29.67;;
62696;SDS011;48761;42.680;23.312;2023-02-15T05:29:56;48.08;;;29.10;;
62696;SDS011;48761;42.680;23.312;2023-02-15T05:32:42;48.90;;;28.90;;
62696;SDS011;48761;42.680;23.312;2023-02-15T05:35:28;50.72;;;29.58;;
62696;SDS011;48761;42.680;23.312;2023-02-15T05:38:15;45.65;;;27.73;;
62696;SDS011;48761;42.680;23.312;2023-02-15T05:41:01;50.40;;;29.58;;
62696;SDS011;48761;42.680;23.312;2023-02-15T05:43:47;47.30;;;28.75;;
62696;SDS011;48761;42.680;23.312;2023-02-15T05:46:33;47.55;;;28.83;;
62696;SDS011;48761;42.680;23.312;2023-02-15T05:49:19;47.58;;;28.58;;
62696;SDS011;48761;42.680;23.312;2023-02-15T05:52:06;49.03;;;28.17;;
62696;SDS011;48761;42.680;23.312;2023-02-15T05:54:52;48.50;;;29.15;;
62696;SDS011;48761;42.680;23.312;2023-02-15T05:57:38;52.58;;;29.05;;
62696;SDS011;48761;42.680;23.312;2023-02-15T06:00:24;47.10;;;28.10;;
62696;SDS011;48761;42.680;23.312;2023-02-15T06:03:11;48.92;;;28.60;;
62696;SDS011;48761;42.680;23.312;2023-02-15T06:05:57;46.65;;;28.33;;
62696;SDS011;48761;42.680;23.312;2023-02-15T06:08:43;47.97;;;28.13;;
62696;SDS011;48761;42.680;23.312;2023-02-15T06:11:29;44.90;;;28.38;;
62696;SDS011;48761;42.680;23.312;2023-02-15T06:14:16;49.58;;;28.85;;
62696;SDS011;48761;42.680;23.312;2023-02-15T06:17:02;49.15;;;27.35;;
62696;SDS011;48761;42.680;23.312;2023-02-15T06:19:48;48.30;;;28.33;;
62696;SDS011;48761;42.680;23.312;2023-02-15T06:22:34;48.60;;;28.65;;
62696;SDS011;48761;42.680;23.312;2023-02-15T06:25:21;45.65;;;27.45;;
62696;SDS011;48761;42.680;23.312;2023-02-15T06:28:07;48.92;;;28.05;;
62696;SDS011;48761;42.680;23.312;2023-02-15T06:30:53;46.63;;;28.35;;
62696;SDS011;48761;42.680;23.312;2023-02-15T06:33:39;45.28;;;27.52;;
62696;SDS011;48761;42.680;23.312;2023-02-15T06:36:25;47.83;;;28.17;;
62696;SDS011;48761;42.680;23.312;2023-02-15T06:39:12;49.15;;;27.98;;
62696;SDS011;48761;42.680;23.312;2023-02-15T06:41:58;48.15;;;27.00;;
62696;SDS011;48761;42.680;23.312;2023-02-15T06:44:45;47.65;;;27.85;;
62696;SDS011;48761;42.680;23.312;2023-02-15T06:47:31;48.95;;;26.65;;
62696;SDS011;48761;42.680;23.312;2023-02-15T06:50:17;44.22;;;26.75;;
62696;SDS011;48761;42.680;23.312;2023-02-15T06:53:03;44.72;;;25.40;;
62696;SDS011;48761;42.680;23.312;2023-02-15T06:55:50;41.60;;;26.23;;
62696;SDS011;48761;42.680;23.312;2023-02-15T06:58:36;45.30;;;26.92;;
62696;SDS011;48761;42.680;23.312;2023-02-15T07:01:24;41.08;;;24.83;;
62696;SDS011;48761;42.680;23.312;2023-02-15T07:03:50;45.13;;;23.92;;
62696;SDS011;48761;42.680;23.312;2023-02-15T07:06:16;38.53;;;24.58;;
62696;SDS011;48761;42.680;23.312;2023-02-15T07:08:42;40.60;;;26.05;;
62696;SDS011;48761;42.680;23.312;2023-02-15T07:11:08;41.53;;;24.52;;
62696;SDS011;48761;42.680;23.312;2023-02-15T07:13:33;41.22;;;24.02;;
62696;SDS011;48761;42.680;23.312;2023-02-15T07:15:59;40.70;;;25.30;;
62696;SDS011;48761;42.680;23.312;2023-02-15T07:18:25;38.63;;;24.50;;
62696;SDS011;48761;42.680;23.312;2023-02-15T07:20:52;39.28;;;23.85;;
62696;SDS011;48761;42.680;23.312;2023-02-15T07:23:21;37.05;;;23.00;;
62696;SDS011;48761;42.680;23.312;2023-02-15T07:25:47;37.85;;;23.58;;
62696;SDS011;48761;42.680;23.312;2023-02-15T07:28:16;37.83;;;23.75;;
62696;SDS011;48761;42.680;23.312;2023-02-15T07:30:45;37.83;;;23.65;;
62696;SDS011;48761;42.680;23.312;2023-02-15T07:33:11;41.65;;;23.42;;
62696;SDS011;48761;42.680;23.312;2023-02-15T07:35:37;38.05;;;23.02;;
62696;SDS011;48761;42.680;23.312;2023-02-15T07:38:03;46.53;;;24.55;;
62696;SDS011;48761;42.680;23.312;2023-02-15T07:40:29;42.22;;;23.38;;
62696;SDS011;48761;42.680;23.312;2023-02-15T07:42:56;48.70;;;23.63;;
62696;SDS011;48761;42.680;23.312;2023-02-15T07:45:23;39.20;;;24.00;;
62696;SDS011;48761;42.680;23.312;2023-02-15T07:47:49;41.10;;;24.08;;
62696;SDS011;48761;42.680;23.312;2023-02-15T07:50:15;36.55;;;22.67;;
62696;SDS011;48761;42.680;23.312;2023-02-15T07:52:42;34.90;;;22.30;;
62696;SDS011;48761;42.680;23.312;2023-02-15T07:55:08;37.80;;;22.60;;
62696;SDS011;48761;42.680;23.312;2023-02-15T07:57:34;35.90;;;21.20;;
62696;SDS011;48761;42.680;23.312;2023-02-15T08:00:00;35.17;;;22.15;;
62696;SDS011;48761;42.680;23.312;2023-02-15T08:02:26;38.30;;;22.88;;
62696;SDS011;48761;42.680;23.312;2023-02-15T08:04:52;38.75;;;23.52;;
62696;SDS011;48761;42.680;23.312;2023-02-15T08:07:18;37.30;;;22.58;;
62696;SDS011;48761;42.680;23.312;2023-02-15T08:09:44;38.75;;;23.27;;
62696;SDS011;48761;42.680;23.312;2023-02-15T08:12:10;34.97;;;22.02;;
62696;SDS011;48761;42.680;23.312;2023-02-15T08:14:36;38.70;;;22.80;;
62696;SDS011;48761;42.680;23.312;2023-02-15T08:17:02;39.38;;;22.33;;
62696;SDS011;48761;42.680;23.312;2023-02-15T08:19:29;37.13;;;21.27;;
62696;SDS011;48761;42.680;23.312;2023-02-15T08:21:57;41.17;;;22.15;;
62696;SDS011;48761;42.680;23.312;2023-02-15T08:24:25;37.22;;;22.90;;
62696;SDS011;48761;42.680;23.312;2023-02-15T08:26:53;39.28;;;22.27;;
62696;SDS011;48761;42.680;23.312;2023-02-15T08:29:20;39.90;;;22.10;;
62696;SDS011;48761;42.680;23.312;2023-02-15T08:31:49;36.05;;;21.58;;
62696;SDS011;48761;42.680;23.312;2023-02-15T08:34:18;39.17;;;21.45;;
62696;SDS011;48761;42.680;23.312;2023-02-15T08:36:46;34.83;;;21.58;;
62696;SDS011;48761;42.680;23.312;2023-02-15T08:39:13;37.80;;;23.10;;
62696;SDS011;48761;42.680;23.312;2023-02-15T08:41:41;42.03;;;23.20;;
62696;SDS011;48761;42.680;23.312;2023-02-15T08:44:09;35.53;;;20.98;;
62696;SDS011;48761;42.680;23.312;2023-02-15T08:46:36;34.22;;;21.02;;
62696;SDS011;48761;42.680;23.312;2023-02-15T08:49:06;35.97;;;21.27;;
62696;SDS011;48761;42.680;23.312;2023-02-15T08:51:33;32.10;;;20.40;;
62696;SDS011;48761;42.680;23.312;2023-02-15T08:54:02;39.42;;;21.50;;
62696;SDS011;48761;42.680;23.312;2023-02-15T08:56:32;37.57;;;20.53;;
62696;SDS011;48761;42.680;23.312;2023-02-15T08:59:00;33.60;;;20.15;;
62696;SDS011;48761;42.680;23.312;2023-02-15T09:01:27;37.20;;;20.50;;
62696;SDS011;48761;42.680;23.312;2023-02-15T09:03:56;36.53;;;20.77;;
62696;SDS011;48761;42.680;23.312;2023-02-15T09:06:26;36.13;;;21.02;;
62696;SDS011;48761;42.680;23.312;2023-02-15T09:08:53;40.00;;;20.98;;
62696;SDS011;48761;42.680;23.312;2023-02-15T09:11:21;36.50;;;21.10;;
62696;SDS011;48761;42.680;23.312;2023-02-15T09:13:55;34.58;;;21.40;;
62696;SDS011;48761;42.680;23.312;2023-02-15T09:16:27;41.30;;;19.77;;
62696;SDS011;48761;42.680;23.312;2023-02-15T09:18:54;38.50;;;21.38;;
62696;SDS011;48761;42.680;23.312;2023-02-15T09:21:21;37.58;;;21.17;;
62696;SDS011;48761;42.680;23.312;2023-02-15T09:23:49;41.55;;;21.42;;
62696;SDS011;48761;42.680;23.312;2023-02-15T09:26:17;35.95;;;20.50;;
62696;SDS011;48761;42.680;23.312;2023-02-15T09:28:44;32.35;;;20.70;;
62696;SDS011;48761;42.680;23.312;2023-02-15T09:31:12;42.28;;;21.23;;
62696;SDS011;48761;42.680;23.312;2023-02-15T09:33:40;37.22;;;21.67;;
62696;SDS011;48761;42.680;23.312;2023-02-15T09:36:17;34.97;;;21.58;;
62696;SDS011;48761;42.680;23.312;2023-02-15T09:38:50;33.20;;;19.67;;
62696;SDS011;48761;42.680;23.312;2023-02-15T09:46:51;35.83;;;21.10;;
62696;SDS011;48761;42.680;23.312;2023-02-15T09:49:45;37.05;;;21.52;;
62696;SDS011;48761;42.680;23.312;2023-02-15T09:57:52;36.58;;;22.30;;
62696;SDS011;48761;42.680;23.312;2023-02-15T10:01:09;33.00;;;21.88;;
62696;SDS011;48761;42.680;23.312;2023-02-15T10:06:55;47.90;;;22.95;;
62696;SDS011;48761;42.680;23.312;2023-02-15T10:09:52;37.15;;;22.50;;
62696;SDS011;48761;42.680;23.312;2023-02-15T10:12:42;32.33;;;21.33;;
62696;SDS011;48761;42.680;23.312;2023-02-15T10:15:28;38.08;;;20.67;;
62696;SDS011;48761;42.680;23.312;2023-02-15T10:26:44;53.08;;;24.05;;
62696;SDS011;48761;42.680;23.312;2023-02-15T10:32:22;33.58;;;22.60;;
62696;SDS011;48761;42.680;23.312;2023-02-15T10:42:46;36.83;;;23.63;;
62696;SDS011;48761;42.680;23.312;2023-02-15T10:50:54;36.72;;;23.70;;
62696;SDS011;48761;42.680;23.312;2023-02-15T10:56:21;40.97;;;22.55;;
62696;SDS011;48761;42.680;23.312;2023-02-15T11:01:48;36.05;;;23.00;;
62696;SDS011;48761;42.680;23.312;2023-02-15T11:06:53;37.58;;;23.08;;
62696;SDS011;48761;42.680;23.312;2023-02-15T11:09:25;39.38;;;23.58;;
62696;SDS011;48761;42.680;23.312;2023-02-15T11:12:01;36.00;;;23.42;;
62696;SDS011;48761;42.680;23.312;2023-02-15T11:17:33;34.90;;;24.13;;
62696;SDS011;48761;42.680;23.312;2023-02-15T11:22:37;41.25;;;24.98;;
62696;SDS011;48761;42.680;23.312;2023-02-15T11:25:05;40.15;;;24.38;;
62696;SDS011;48761;42.680;23.312;2023-02-15T11:27:42;39.25;;;22.55;;
62696;SDS011;48761;42.680;23.312;2023-02-15T11:30:18;35.47;;;23.05;;
62696;SDS011;48761;42.680;23.312;2023-02-15T11:32:46;39.78;;;23.73;;
62696;SDS011;48761;42.680;23.312;2023-02-15T11:38:01;36.30;;;22.98;;
62696;SDS011;48761;42.680;23.312;2023-02-15T11:40:43;35.83;;;23.13;;
62696;SDS011;48761;42.680;23.312;2023-02-15T11:43:17;35.35;;;23.85;;
62696;SDS011;48761;42.680;23.312;2023-02-15T11:45:48;36.78;;;23.13;;
62696;SDS011;48761;42.680;23.312;2023-02-15T11:48:14;39.78;;;25.23;;
62696;SDS011;48761;42.680;23.312;2023-02-15T11:50:41;35.47;;;23.77;;
62696;SDS011;48761;42.680;23.312;2023-02-15T11:53:18;38.83;;;23.92;;
62696;SDS011;48761;42.680;23.312;2023-02-15T11:55:46;36.38;;;23.50;;
62696;SDS011;48761;42.680;23.312;2023-02-15T12:04:07;43.47;;;24.55;;
62696;SDS011;48761;42.680;23.312;2023-02-15T12:09:33;34.72;;;22.85;;
62696;SDS011;48761;42.680;23.312;2023-02-15T12:12:22;38.22;;;23.48;;
62696;SDS011;48761;42.680;23.312;2023-02-15T12:14:54;36.28;;;22.33;;
62696;SDS011;48761;42.680;23.312;2023-02-15T12:17:22;36.97;;;23.23;;
62696;SDS011;48761;42.680;23.312;2023-02-15T12:19:50;41.45;;;24.38;;
62696;SDS011;48761;42.680;23.312;2023-02-15T12:22:24;42.22;;;24.00;;
62696;SDS011;48761;42.680;23.312;2023-02-15T12:24:54;34.42;;;22.50;;
62696;SDS011;48761;42.680;23.312;2023-02-15T12:27:32;38.42;;;23.13;;
62696;SDS011;48761;42.680;23.312;2023-02-15T12:30:01;36.95;;;23.50;;
62696;SDS011;48761;42.680;23.312;2023-02-15T12:32:33;35.53;;;22.92;;
62696;SDS011;48761;42.680;23.312;2023-02-15T12:35:07;39.13;;;24.75;;
62696;SDS011;48761;42.680;23.312;2023-02-15T12:37:53;34.40;;;23.20;;
62696;SDS011;48761;42.680;23.312;2023-02-15T12:40:24;34.72;;;22.13;;
62696;SDS011;48761;42.680;23.312;2023-02-15T12:42:54;37.85;;;23.58;;
62696;SDS011;48761;42.680;23.312;2023-02-15T12:45:25;45.92;;;25.55;;
62696;SDS011;48761;42.680;23.312;2023-02-15T12:48:26;37.58;;;24.70;;
62696;SDS011;48761;42.680;23.312;2023-02-15T12:50:54;46.45;;;25.73;;
62696;SDS011;48761;42.680;23.312;2023-02-15T12:53:38;34.00;;;21.60;;
62696;SDS011;48761;42.680;23.312;2023-02-15T12:56:05;33.67;;;22.25;;
62696;SDS011;48761;42.680;23.312;2023-02-15T12:58:33;38.03;;;23.65;;
62696;SDS011;48761;42.680;23.312;2023-02-15T13:06:48;42.20;;;24.23;;
62696;SDS011;48761;42.680;23.312;2023-02-15T13:09:17;36.38;;;22.90;;
62696;SDS011;48761;42.680;23.312;2023-02-15T13:11:57;42.45;;;23.08;;
62696;SDS011;48761;42.680;23.312;2023-02-15T13:14:44;38.58;;;24.80;;
62696;SDS011;48761;42.680;23.312;2023-02-15T13:17:11;39.33;;;25.08;;
62696;SDS011;48761;42.680;23.312;2023-02-15T13:19:43;39.00;;;24.65;;
62696;SDS011;48761;42.680;23.312;2023-02-15T13:22:14;42.15;;;25.90;;
62696;SDS011;48761;42.680;23.312;2023-02-15T13:24:44;37.75;;;24.63;;
62696;SDS011;48761;42.680;23.312;2023-02-15T13:27:18;33.70;;;23.33;;
62696;SDS011;48761;42.680;23.312;2023-02-15T13:29:50;36.47;;;24.20;;
62696;SDS011;48761;42.680;23.312;2023-02-15T13:32:26;37.60;;;24.17;;
62696;SDS011;48761;42.680;23.312;2023-02-15T13:34:59;35.30;;;23.95;;
62696;SDS011;48761;42.680;23.312;2023-02-15T13:42:46;37.15;;;23.65;;
62696;SDS011;48761;42.680;23.312;2023-02-15T13:45:36;34.00;;;22.38;;
62696;SDS011;48761;42.680;23.312;2023-02-15T13:48:30;36.25;;;23.33;;
62696;SDS011;48761;42.680;23.312;2023-02-15T13:51:42;39.53;;;24.02;;
62696;SDS011;48761;42.680;23.312;2023-02-15T13:59:47;36.43;;;23.50;;
62696;SDS011;48761;42.680;23.312;2023-02-15T14:02:37;34.17;;;23.55;;
62696;SDS011;48761;42.680;23.312;2023-02-15T14:05:28;35.20;;;23.80;;
62696;SDS011;48761;42.680;23.312;2023-02-15T14:11:21;44.03;;;25.48;;
62696;SDS011;48761;42.680;23.312;2023-02-15T14:18:56;46.58;;;25.58;;
62696;SDS011;48761;42.680;23.312;2023-02-15T14:21:35;41.35;;;26.45;;
62696;SDS011;48761;42.680;23.312;2023-02-15T14:24:26;47.80;;;25.38;;
62696;SDS011;48761;42.680;23.312;2023-02-15T14:27:14;37.35;;;25.77;;
62696;SDS011;48761;42.680;23.312;2023-02-15T14:30:02;41.03;;;25.63;;
62696;SDS011;48761;42.680;23.312;2023-02-15T14:35:27;44.15;;;25.58;;
62696;SDS011;48761;42.680;23.312;2023-02-15T14:40:47;42.83;;;27.80;;
62696;SDS011;48761;42.680;23.312;2023-02-15T14:54:09;47.47;;;27.30;;
62696;SDS011;48761;42.680;23.312;2023-02-15T14:56:36;41.85;;;25.80;;
62696;SDS011;48761;42.680;23.312;2023-02-15T15:01:37;44.42;;;26.45;;
62696;SDS011;48761;42.680;23.312;2023-02-15T15:04:09;45.67;;;27.52;;
62696;SDS011;48761;42.680;23.312;2023-02-15T15:06:40;43.30;;;26.52;;
62696;SDS011;48761;42.680;23.312;2023-02-15T15:09:10;42.45;;;25.85;;
62696;SDS011;48761;42.680;23.312;2023-02-15T15:11:41;41.35;;;25.55;;
62696;SDS011;48761;42.680;23.312;2023-02-15T15:14:10;41.80;;;26.08;;
62696;SDS011;48761;42.680;23.312;2023-02-15T15:16:56;41.53;;;25.90;;
62696;SDS011;48761;42.680;23.312;2023-02-15T15:22:21;42.13;;;26.92;;
62696;SDS011;48761;42.680;23.312;2023-02-15T15:24:58;45.53;;;26.95;;
62696;SDS011;48761;42.680;23.312;2023-02-15T15:32:39;45.90;;;27.77;;
62696;SDS011;48761;42.680;23.312;2023-02-15T15:38:05;47.42;;;28.58;;
62696;SDS011;48761;42.680;23.312;2023-02-15T15:49:24;48.03;;;29.05;;
62696;SDS011;48761;42.680;23.312;2023-02-15T15:51:55;49.87;;;30.20;;
62696;SDS011;48761;42.680;23.312;2023-02-15T15:54:22;52.35;;;31.13;;
62696;SDS011;48761;42.680;23.312;2023-02-15T15:56:54;51.65;;;30.55;;
62696;SDS011;48761;42.680;23.312;2023-02-15T15:59:24;50.80;;;30.38;;
62696;SDS011;48761;42.680;23.312;2023-02-15T16:01:52;52.10;;;31.45;;
62696;SDS011;48761;42.680;23.312;2023-02-15T16:04:23;48.00;;;30.40;;
62696;SDS011;48761;42.680;23.312;2023-02-15T16:06:55;50.75;;;31.58;;
62696;SDS011;48761;42.680;23.312;2023-02-15T16:09:23;53.15;;;33.17;;
62696;SDS011;48761;42.680;23.312;2023-02-15T16:11:53;54.45;;;31.77;;
62696;SDS011;48761;42.680;23.312;2023-02-15T16:14:39;57.05;;;34.13;;
62696;SDS011;48761;42.680;23.312;2023-02-15T16:17:07;52.92;;;31.70;;
62696;SDS011;48761;42.680;23.312;2023-02-15T16:19:45;54.17;;;32.05;;
62696;SDS011;48761;42.680;23.312;2023-02-15T16:22:21;47.15;;;30.13;;
62696;SDS011;48761;42.680;23.312;2023-02-15T16:27:46;47.75;;;30.25;;
62696;SDS011;48761;42.680;23.312;2023-02-15T16:33:07;54.42;;;30.73;;
62696;SDS011;48761;42.680;23.312;2023-02-15T16:35:54;47.45;;;29.55;;
62696;SDS011;48761;42.680;23.312;2023-02-15T16:41:26;51.72;;;29.83;;
62696;SDS011;48761;42.680;23.312;2023-02-15T16:43:56;47.15;;;28.92;;
62696;SDS011;48761;42.680;23.312;2023-02-15T16:49:02;53.45;;;30.13;;
62696;SDS011;48761;42.680;23.312;2023-02-15T16:51:32;49.17;;;30.20;;
62696;SDS011;48761;42.680;23.312;2023-02-15T16:54:03;53.95;;;28.65;;
62696;SDS011;48761;42.680;23.312;2023-02-15T16:56:32;49.85;;;30.50;;
62696;SDS011;48761;42.680;23.312;2023-02-15T16:59:04;51.92;;;30.90;;
62696;SDS011;48761;42.680;23.312;2023-02-15T17:01:30;50.20;;;30.55;;
62696;SDS011;48761;42.680;23.312;2023-02-15T17:04:13;54.85;;;29.83;;
62696;SDS011;48761;42.680;23.312;2023-02-15T17:06:57;48.00;;;29.75;;
62696;SDS011;48761;42.680;23.312;2023-02-15T17:09:48;44.53;;;28.55;;
62696;SDS011;48761;42.680;23.312;2023-02-15T17:15:26;49.60;;;30.48;;
62696;SDS011;48761;42.680;23.312;2023-02-15T17:18:00;59.50;;;32.10;;
62696;SDS011;48761;42.680;23.312;2023-02-15T17:20:45;53.28;;;30.65;;
62696;SDS011;48761;42.680;23.312;2023-02-15T17:23:24;52.85;;;32.20;;
62696;SDS011;48761;42.680;23.312;2023-02-15T17:25:57;53.50;;;32.17;;
62696;SDS011;48761;42.680;23.312;2023-02-15T17:28:25;57.15;;;32.85;;
62696;SDS011;48761;42.680;23.312;2023-02-15T17:30:53;55.42;;;32.60;;
62696;SDS011;48761;42.680;23.312;2023-02-15T17:36:05;58.20;;;32.78;;
62696;SDS011;48761;42.680;23.312;2023-02-15T17:38:32;47.53;;;30.20;;
62696;SDS011;48761;42.680;23.312;2023-02-15T17:40:58;53.67;;;32.65;;
62696;SDS011;48761;42.680;23.312;2023-02-15T17:43:25;51.70;;;31.20;;
62696;SDS011;48761;42.680;23.312;2023-02-15T17:45:51;51.72;;;31.90;;
62696;SDS011;48761;42.680;23.312;2023-02-15T17:48:20;52.67;;;32.13;;
62696;SDS011;48761;42.680;23.312;2023-02-15T17:50:48;52.58;;;31.65;;
62696;SDS011;48761;42.680;23.312;2023-02-15T17:53:15;58.22;;;33.47;;
62696;SDS011;48761;42.680;23.312;2023-02-15T17:55:44;52.95;;;32.67;;
62696;SDS011;48761;42.680;23.312;2023-02-15T17:58:14;55.65;;;32.08;;
62696;SDS011;48761;42.680;23.312;2023-02-15T18:00:43;55.45;;;32.30;;
62696;SDS011;48761;42.680;23.312;2023-02-15T18:03:10;58.47;;;31.75;;
62696;SDS011;48761;42.680;23.312;2023-02-15T18:05:37;50.33;;;30.58;;
62696;SDS011;48761;42.680;23.312;2023-02-15T18:08:04;54.35;;;30.15;;